createdAt,value
2019-05-20T00:03:16.813Z,90.70
2019-05-20T00:08:22.258Z,90.70
2019-05-20T00:13:27.722Z,90.80
2019-05-20T00:18:33.252Z,90.80
2019-05-20T00:23:38.778Z,90.80
2019-05-20T00:28:44.277Z,90.90
2019-05-20T00:33:49.774Z,91.00
2019-05-20T00:39:14.117Z,91.10
2019-05-20T00:44:19.822Z,91.10
2019-05-20T00:49:25.306Z,91.20
2019-05-20T00:54:31.024Z,91.20
2019-05-20T00:59:36.568Z,91.30
2019-05-20T01:04:42.117Z,91.30
2019-05-20T01:09:47.531Z,91.40
2019-05-20T01:14:53.106Z,91.40
2019-05-20T01:19:58.565Z,91.50
2019-05-20T01:25:04.118Z,91.50
2019-05-20T01:30:09.852Z,91.50
2019-05-20T01:35:15.280Z,91.60
2019-05-20T01:40:20.818Z,91.70
2019-05-20T01:45:26.246Z,91.80
2019-05-20T01:50:31.756Z,92.00
2019-05-20T01:55:37.165Z,92.00
2019-05-20T02:00:42.655Z,92.00
2019-05-20T02:05:48.142Z,92.10
2019-05-20T02:10:56.522Z,92.10
2019-05-20T02:16:05.230Z,92.00
2019-05-20T02:21:10.714Z,92.00
2019-05-20T02:26:16.256Z,91.90
2019-05-20T02:31:21.840Z,91.90
2019-05-20T02:36:27.327Z,91.90
2019-05-20T02:41:32.791Z,91.80
2019-05-20T02:46:38.193Z,91.80
2019-05-20T02:51:43.655Z,91.70
2019-05-20T02:56:49.077Z,91.70
2019-05-20T03:01:54.563Z,91.60
2019-05-20T03:07:00.070Z,91.60
2019-05-20T03:12:05.539Z,91.50
2019-05-20T03:17:10.964Z,91.40
2019-05-20T03:22:16.400Z,91.30
2019-05-20T03:27:21.879Z,91.20
2019-05-20T03:32:27.313Z,91.10
2019-05-20T03:37:32.827Z,91.10
2019-05-20T03:42:38.277Z,91.00
2019-05-20T03:47:43.848Z,90.90
2019-05-20T03:52:49.319Z,90.80
2019-05-20T03:57:54.768Z,90.70
2019-05-20T04:03:00.220Z,90.60
2019-05-20T04:08:05.691Z,90.50
2019-05-20T04:13:11.151Z,90.50
2019-05-20T04:18:16.656Z,90.40
2019-05-20T04:23:22.080Z,90.30
2019-05-20T04:28:27.524Z,90.30
2019-05-20T04:33:32.958Z,90.20
2019-05-20T04:38:38.446Z,90.20
2019-05-20T04:43:43.886Z,90.10
2019-05-20T04:48:49.341Z,90.00
2019-05-20T04:53:56.757Z,89.90
2019-05-20T04:59:02.483Z,89.80
2019-05-20T05:04:08.025Z,89.50
2019-05-20T05:09:15.581Z,89.30
2019-05-20T05:14:20.662Z,89.20
2019-05-20T05:19:26.204Z,89.10
2019-05-20T05:24:31.663Z,88.80
2019-05-20T05:29:37.129Z,88.70
2019-05-20T05:34:42.730Z,88.60
2019-05-20T05:39:48.373Z,88.30
2019-05-20T05:44:54.078Z,88.10
2019-05-20T05:50:00.013Z,87.90
2019-05-20T05:55:05.476Z,87.70
2019-05-20T06:00:10.911Z,87.30
2019-05-20T06:05:16.420Z,86.90
2019-05-20T06:10:22.024Z,86.70
2019-05-20T06:15:27.601Z,86.40
2019-05-20T06:20:33.073Z,86.00
2019-05-20T06:25:38.716Z,85.60
2019-05-20T06:30:45.675Z,85.20
2019-05-20T06:35:51.101Z,84.90
2019-05-20T06:40:56.620Z,84.60
2019-05-20T06:46:02.136Z,84.50
2019-05-20T06:51:07.687Z,84.20
2019-05-20T06:56:13.166Z,83.80
2019-05-20T07:01:18.585Z,83.70
2019-05-20T07:06:24.052Z,83.30
2019-05-20T07:11:29.492Z,82.90
2019-05-20T07:16:35.114Z,82.60
2019-05-20T07:21:40.619Z,82.50
2019-05-20T07:26:46.171Z,82.30
2019-05-20T07:31:51.686Z,82.10
2019-05-20T07:37:03.054Z,82.00
2019-05-20T07:42:04.314Z,81.80
2019-05-20T07:47:11.101Z,81.50
2019-05-20T07:52:16.921Z,81.40
2019-05-20T07:57:22.662Z,81.30
2019-05-20T08:02:28.822Z,81.00
2019-05-20T08:07:50.565Z,80.50
2019-05-20T08:12:41.545Z,80.10
2019-05-20T08:17:46.965Z,79.70
2019-05-20T08:22:52.391Z,79.50
2019-05-20T08:27:57.931Z,79.20
2019-05-20T08:33:03.497Z,79.90
2019-05-20T08:38:08.990Z,79.30
2019-05-20T08:43:14.469Z,79.50
2019-05-20T08:48:20.053Z,79.60
2019-05-20T08:53:25.567Z,79.70
2019-05-20T08:58:31.088Z,79.70
2019-05-20T09:03:36.565Z,79.40
2019-05-20T09:08:42.010Z,79.30
2019-05-20T09:13:47.567Z,79.10
2019-05-20T09:18:53.130Z,79.00
2019-05-20T09:23:58.559Z,78.80
2019-05-20T09:29:04.024Z,78.40
2019-05-20T09:34:09.551Z,77.90
2019-05-20T09:39:15.086Z,77.50
2019-05-20T09:44:20.543Z,77.50
2019-05-20T09:49:26.207Z,77.50
2019-05-20T09:54:31.781Z,77.60
2019-05-20T09:59:43.256Z,77.70
2019-05-20T10:04:44.659Z,77.70
2019-05-20T10:09:50.109Z,77.80
2019-05-20T10:14:55.634Z,77.70
2019-05-20T10:20:01.386Z,77.20
2019-05-20T10:25:07.101Z,76.40
2019-05-20T10:30:12.710Z,75.80
2019-05-20T10:35:18.728Z,75.40
2019-05-20T10:40:24.259Z,75.30
2019-05-20T10:45:29.884Z,75.30
2019-05-20T10:50:35.394Z,75.30
2019-05-20T10:55:41.724Z,75.20
2019-05-20T11:01:01.665Z,74.80
2019-05-20T11:05:54.463Z,74.20
2019-05-20T11:10:59.981Z,73.80
2019-05-20T11:16:05.420Z,73.60
2019-05-20T11:21:10.898Z,73.30
2019-05-20T11:26:16.466Z,73.00
2019-05-20T11:31:22.119Z,72.80
2019-05-20T11:36:27.569Z,72.10
2019-05-20T11:41:52.880Z,71.40
2019-05-20T11:46:40.266Z,71.00
2019-05-20T11:51:45.679Z,70.50
2019-05-20T11:56:51.284Z,70.10
2019-05-20T12:01:57.195Z,69.70
2019-05-20T12:07:02.861Z,69.60
2019-05-20T12:12:08.358Z,69.20
2019-05-20T12:17:13.833Z,69.00
2019-05-20T12:22:19.367Z,69.00
2019-05-20T12:27:24.825Z,69.00
2019-05-20T12:32:30.390Z,69.30
2019-05-20T12:37:36.137Z,70.00
2019-05-20T12:42:41.626Z,70.40
2019-05-20T12:47:47.133Z,70.60
2019-05-20T12:52:52.574Z,70.20
2019-05-20T12:57:58.058Z,69.70
2019-05-20T13:03:03.506Z,69.10
2019-05-20T13:08:09.147Z,68.50
2019-05-20T13:13:14.773Z,68.00
2019-05-20T13:18:21.244Z,67.40
2019-05-20T13:23:26.784Z,67.10
2019-05-20T13:28:32.587Z,66.70
2019-05-20T13:33:38.341Z,66.40
2019-05-20T13:38:43.841Z,66.20
2019-05-20T13:43:49.330Z,66.20
2019-05-20T13:48:54.815Z,66.40
2019-05-20T13:54:00.372Z,66.20
2019-05-20T13:59:05.889Z,65.80
2019-05-20T14:04:11.588Z,65.40
2019-05-20T14:09:17.023Z,64.70
2019-05-20T14:14:22.529Z,64.40
2019-05-20T14:19:28.033Z,64.70
2019-05-20T14:24:33.520Z,64.00
2019-05-20T14:29:39.013Z,64.10
2019-05-20T14:34:44.546Z,64.30
2019-05-20T14:39:50.129Z,64.10
2019-05-20T14:44:55.759Z,64.40
2019-05-20T14:50:01.179Z,64.80
2019-05-20T14:55:06.873Z,65.30
2019-05-20T15:00:12.299Z,65.70
2019-05-20T15:05:17.718Z,66.20
2019-05-20T15:10:23.165Z,66.80
2019-05-20T15:15:28.669Z,67.60
2019-05-20T15:20:34.102Z,68.20
2019-05-20T15:25:39.584Z,68.50
2019-05-20T15:30:45.008Z,68.60
2019-05-20T15:35:50.413Z,68.90
2019-05-20T15:40:55.865Z,68.70
2019-05-20T15:46:01.319Z,68.70
2019-05-20T15:51:06.850Z,68.80
2019-05-20T15:56:12.297Z,68.90
2019-05-20T16:01:17.830Z,69.00
2019-05-20T16:06:23.308Z,69.00
2019-05-20T16:11:28.910Z,69.30
2019-05-20T16:16:34.446Z,69.50
2019-05-20T16:21:40.230Z,69.60
2019-05-20T16:26:45.759Z,69.50
2019-05-20T16:31:51.495Z,69.70
2019-05-20T16:36:57.234Z,69.90
2019-05-20T16:42:02.759Z,69.90
2019-05-20T16:47:08.265Z,69.70
2019-05-20T16:52:14.144Z,69.70
2019-05-20T16:57:19.808Z,69.80
2019-05-20T17:02:25.342Z,70.00
2019-05-20T17:07:31.695Z,70.10
2019-05-20T17:12:37.881Z,70.30
2019-05-20T17:17:43.617Z,70.30
2019-05-20T17:22:50.225Z,70.40
2019-05-20T17:27:56.743Z,70.60
2019-05-20T17:33:02.244Z,70.90
2019-05-20T17:38:07.740Z,71.10
2019-05-20T17:43:13.189Z,71.30
2019-05-20T17:48:18.797Z,71.60
2019-05-20T17:53:24.422Z,71.80
2019-05-20T17:58:30.237Z,72.00
2019-05-20T18:03:35.881Z,72.00
2019-05-20T18:08:44.588Z,72.30
2019-05-20T18:13:50.249Z,72.50
2019-05-20T18:18:55.894Z,72.70
2019-05-20T18:24:01.648Z,73.00
2019-05-20T18:29:07.278Z,73.20
2019-05-20T18:34:12.960Z,73.50
2019-05-20T18:39:18.535Z,73.60
2019-05-20T18:44:24.231Z,73.90
2019-05-20T18:49:29.956Z,74.10
2019-05-20T18:54:35.516Z,74.30
2019-05-20T18:59:41.188Z,74.70
2019-05-20T19:04:46.647Z,74.60
2019-05-20T19:09:52.257Z,74.80
2019-05-20T19:14:57.862Z,74.80
2019-05-20T19:20:03.639Z,74.90
2019-05-20T19:25:09.118Z,75.10
2019-05-20T19:30:14.681Z,75.20
2019-05-20T19:35:20.329Z,75.50
2019-05-20T19:40:25.803Z,75.70
2019-05-20T19:45:31.328Z,76.70
2019-05-20T19:50:36.889Z,76.20
2019-05-20T19:55:42.426Z,76.40
2019-05-20T20:00:47.921Z,76.60
2019-05-20T20:05:53.356Z,76.70
2019-05-20T20:10:58.800Z,76.80
2019-05-20T20:16:04.330Z,77.10
2019-05-20T20:21:10.123Z,77.30
2019-05-20T20:26:15.643Z,77.50
2019-05-20T20:31:21.072Z,77.80
2019-05-20T20:36:26.492Z,78.00
2019-05-20T20:41:31.965Z,78.30
2019-05-20T20:46:40.388Z,78.50
2019-05-20T20:51:44.600Z,78.80
2019-05-20T20:56:50.132Z,78.90
2019-05-20T21:01:59.140Z,79.10
2019-05-20T21:07:02.943Z,79.30
2019-05-20T21:12:08.472Z,79.60
2019-05-20T21:17:13.908Z,79.50
2019-05-20T21:22:19.381Z,80.30
2019-05-20T21:27:24.855Z,79.70
2019-05-20T21:32:30.375Z,80.10
2019-05-20T21:37:36.039Z,80.50
2019-05-20T21:42:41.492Z,81.10
2019-05-20T21:47:46.975Z,81.70
2019-05-20T21:52:52.476Z,82.30
2019-05-20T21:57:58.004Z,82.60
2019-05-20T22:03:03.460Z,83.10
2019-05-20T22:08:10.664Z,83.40
2019-05-20T22:13:16.132Z,84.30
2019-05-20T22:18:21.632Z,84.30
2019-05-20T22:23:41.016Z,84.60
2019-05-20T22:28:46.867Z,85.00
2019-05-20T22:33:52.383Z,85.50
2019-05-20T22:38:57.828Z,86.00
2019-05-20T22:44:03.334Z,86.30
2019-05-20T22:49:08.918Z,86.90
2019-05-20T22:54:14.496Z,87.20
2019-05-20T22:59:20.132Z,87.60
2019-05-20T23:04:42.311Z,88.10
2019-05-20T23:09:47.734Z,88.20
2019-05-20T23:14:53.260Z,88.30
2019-05-20T23:19:58.702Z,88.40
2019-05-20T23:25:04.252Z,88.60
2019-05-20T23:30:09.720Z,88.70
2019-05-20T23:35:15.150Z,88.80
2019-05-20T23:40:20.603Z,88.80
2019-05-20T23:45:26.009Z,88.80
2019-05-20T23:50:31.514Z,89.00
2019-05-20T23:55:36.949Z,89.10
